Aérodrome :
LOGIN :

S'inscrire | Disclaimer

   EN    FR    IT 

 










Légende :    VFR   VFR Marginal   IFR   IFR Intensif   IFR Très Intensif
Visi : 
Plafond : 
>= 8 km
>= 3000ft
5 à 8 km
1000 à 3000 ft
1500m à 5 km
500 à 1000 ft
800 à 1500m
200 à 500 ft
< 800m
< 200 ft
Symboles :   Orages  Brouillard  Fortes neiges  Fortes précipitations  Vent > 20 kt
SIGMETs :   Divers  Orages  Givrage  Turbulence  Onde Orograph.  Cendres Volcan.






- Altitude de l'aérodrome : 1115 ft
- Code IATA : GRZ


LOWG - Graz

DERNIER METAR :
  • 172320Z AUTO VRB01KT 0400 R17/0450N R35/0325N FG FEW000 BKN001 09/08 Q1016

METARs EXPIRÉS :
  • 172250Z AUTO 08002KT 0450 R17/P1500U R35/0450N BCFG FEW000 SCT001 07/07 Q1016
  • 172220Z AUTO VRB01KT 1300 0450N R17/0450N R35/P1500U BCFG BKN001 09/08 Q1016
  • 172150Z AUTO VRB01KT 0650 R17/0550D R35/P1500D BCFG FEW001 09/08 Q1016
  • 172120Z AUTO VRB02KT 3800 0350W R17/P1500U R35/P1500U BCFG FEW011 08/07 Q1016 TEMPO 0300
  • 172050Z AUTO VRB01KT 0450 R17/P1500U R35/0400D BCFG FEW007 10/09 Q1017 TEMPO 5000 BR

TAF TAF LOWG
Valide du 18 à 00h jusqu'au 19 à 00h UTC


172315Z 1800/1824 VRB02KT 9999 FEW030 TX19/1814Z TN06/1805Z
TEMPO 1800/1808 0800 BCFG FEW001
PROB30
TEMPO 1801/1807 0300 FG BKN001



MET'MAP, la Météo Aéronautique d'un coup d'oeil ! - Copyright ORBIFLY Décembre 2007 - Disclaimer

ORBIFLY MET'MAP TEAM :

Programmation & Développement : Alexandra Zaïnal
Conception & Développement : Baudouin d'Aumeries
Co-Programmation & Développement : Marc-Olivier Méhu
Soutien technique & logistique : Manuel Goepfert

Contact : metmap@orbifly.com




SOURCES & CREDITS :

   NOAA